• Join FlightAware (Why Join?)
  • Login
  • US Flag 
08:34PM EDT


 

Airport Tracker/Info


-or-


 

Live Flight TrackerFlight Track Log ✈ AAL1012 ✈ 20-Apr-2013 ✈ KMIA - KPHL

Flight Track Log - Related Links

Times and Time Zones

All times are in EDT time to prevent confusion due to time zone crossing. See the AAL1012 flight status page for this flight to view local times or setup timezone preferences in your user account.

Time Position Orientation Groundspeed Altitude Reporting Facility
EDT Latitude Longitude Course Direction KTS MPH feet Rate Location/Type
03:14PM 25.8020 -80.2680 90° East 183 211 200  Level FlightAware
03:14PM 25.8050 -80.2450 82° East 180 207 1,400 2,040 Climbing FlightAware
03:15PM 25.8090 -80.2160 81° East 200 230 2,100 1,260 Climbing FlightAware
03:15PM 25.8120 -80.1880 83° East 229 264 2,600 1,320 Climbing FlightAware
03:16PM 25.8170 -80.1570 80° East 254 292 3,200 1,680 Climbing FlightAware
03:16PM 25.8340 -80.1390 44° Northeast 260 299 3,900 2,160 Climbing FlightAware
03:16PM 25.8460 -80.1350 17° North 259 298 4,300 2,100 Climbing FlightAware
03:17PM 25.8820 -80.1380 356° North 272 313 5,300 1,980 Climbing FlightAware
03:17PM 25.9030 -80.1430 348° North 281 323 5,800 2,220 Climbing FlightAware
03:17PM 25.9410 -80.1550 344° North 281 323 7,000 2,580 Climbing FlightAware
03:18PM 25.9680 -80.1730 329° Northwest 279 321 8,200 2,460 Climbing FlightAware
03:18PM 25.9980 -80.2000 321° Northwest 284 327 9,300 2,040 Climbing FlightAware
03:19PM 26.0380 -80.2420 317° Northwest 308 354 10,600 1,980 Climbing FlightAware
03:21PM 26.1550 -80.3460 321° Northwest 343 395 14,100 2,100 Climbing FlightAware
03:22PM 26.2430 -80.3540 355° North 371 427 16,100 2,220 Climbing FlightAware
03:22PM 26.3130 -80.3600 356° North 386 444 17,500 2,280 Climbing FlightAware
03:23PM 26.3770 -80.3640 357° North 389 448 19,000 2,520 Climbing FlightAware
03:24PM 26.4550 -80.3740 353° North 391 450 20,900 2,460 Climbing FlightAware
03:24PM 26.5040 -80.3720 North 388 447 21,900 1,800 Climbing FlightAware
03:25PM 26.5930 -80.3670 North 416 479 23,200 1,020 Climbing FlightAware
03:26PM 26.7340 -80.3430 North 427 491 24,000 480 Climbing FlightAware
03:27PM 26.8410 -80.3220 10° North 438 504 24,300 1,380 Climbing FlightAware
03:28PM 26.9240 -80.3040 11° North 440 506 26,200 2,640 Climbing FlightAware
03:28PM 27.0080 -80.2870 10° North 417 480 28,100 2,700 Climbing FlightAware
03:29PM 27.0380 -80.2870 360° North 405 466 28,900 1,440 Climbing FlightAware
03:30PM 27.1550 -80.2840 North 421 484 29,900 1,080 Climbing FlightAware
03:30PM 27.2050 -80.2970 347° North 405 466 30,500 1,260 Climbing FlightAware
03:31PM 27.2680 -80.3320 334° Northwest 398 458 31,300 1,020 Climbing FlightAware
03:31PM 27.3270 -80.3640 334° Northwest 407 468 31,800 1,020 Climbing FlightAware
03:32PM 27.4180 -80.4120 335° Northwest 413 475 32,800 780 Climbing FlightAware
03:33PM 27.4890 -80.4500 335° Northwest 414 476 33,000 120 Climbing FlightAware
03:33PM 27.5580 -80.4880 334° Northwest 408 470 33,000  Level FlightAware
03:34PM 27.6060 -80.5470 313° West 379 436 33,000  Level FlightAware
03:35PM 27.6600 -80.6260 308° West 381 438 33,000 600 Level FlightAware
03:36PM 27.7030 -80.6890 308° West 379 436 33,900 720 Climbing FlightAware
03:36PM 27.7460 -80.7530 307° West 379 436 34,000 120 Climbing FlightAware
03:37PM 27.7980 -80.8250 309° West 413 475 34,100 420 Climbing FlightAware
03:38PM 27.8680 -80.8600 336° Northwest 449 517 34,600 600 Climbing FlightAware
03:38PM 27.9620 -80.8880 345° North 447 514 35,000 660 Climbing FlightAware
03:39PM 28.0400 -80.9120 345° North 435 501 35,600 1,020 Climbing FlightAware
03:40PM 28.0990 -80.9300 345° North 431 496 36,200 900 Climbing FlightAware
03:40PM 28.1940 -80.9580 345° North 442 509 36,800 480 Climbing FlightAware
03:41PM 28.2750 -80.9910 340° North 410 472 37,000 120 Climbing FlightAware
03:42PM 28.3420 -81.0410 327° Northwest 406 467 37,000  Level FlightAware
03:43PM 28.4160 -81.0980 326° Northwest 403 464 37,000  Level FlightAware
03:44PM 28.6200 -81.1850 339° North 437 503 37,000  Level FlightAware
03:46PM 28.7890 -81.2180 350° North 442 509 37,000  Level FlightAware
03:49PM 29.1460 -81.2840 351° North 438 504 37,000  Level FlightAware
03:50PM 29.2570 -81.3050 351° North 436 502 37,000  Level FlightAware
03:51PM 29.3680 -81.3260 351° North 441 507 37,000  Level FlightAware
03:52PM 29.4760 -81.3460 351° North 441 507 37,000  Level FlightAware
03:53PM 29.6300 -81.3750 351° North 453 521 37,000  Level FlightAware
03:53PM 29.7000 -81.3900 349° North 453 521 37,000  Level FlightAware
03:54PM 29.7700 -81.4040 350° North 453 521 37,000  Level FlightAware
03:55PM 29.8410 -81.4180 350° North 453 521 37,000  Level FlightAware
03:56PM 29.9280 -81.4360 350° North 453 521 37,000  Level FlightAware
03:56PM 29.9980 -81.4500 350° North 453 521 37,000  Level FlightAware
03:57PM 30.0690 -81.4650 350° North 453 521 37,000  Level FlightAware
03:58PM 30.1390 -81.4790 350° North 453 521 37,000  Level FlightAware
03:58PM 30.2090 -81.4930 350° North 453 521 37,000  Level FlightAware
03:59PM 30.2790 -81.5080 350° North 453 521 37,000  Level FlightAware
04:00PM 30.3670 -81.5260 350° North 453 521 37,000  Level FlightAware
04:00PM 30.4370 -81.5400 350° North 453 521 37,000  Level FlightAware
04:01PM 30.5070 -81.5540 350° North 453 521 37,000  Level FlightAware
04:02PM 30.5770 -81.5690 350° North 453 521 37,000 300 Level FlightAware
04:07PM 31.5090 -80.6470 40° Northeast 527 606 39,000 300 Climbing FlightAware
04:08PM 31.5660 -80.6090 30° Northeast 526 605 39,000  Level FlightAware
04:09PM 31.6670 -80.5400 30° Northeast 526 605 39,000  Level FlightAware
04:09PM 31.7380 -80.4910 30° Northeast 526 605 39,000  Level FlightAware
04:10PM 31.8280 -80.4300 30° Northeast 526 605 39,000  Level FlightAware
04:11PM 31.9000 -80.3820 30° Northeast 526 605 39,000  Level FlightAware
04:11PM 31.9710 -80.3330 30° Northeast 526 605 39,000  Level FlightAware
04:12PM 32.0430 -80.2840 30° Northeast 526 605 39,000  Level FlightAware
04:13PM 32.1320 -80.2230 30° Northeast 526 605 39,000  Level FlightAware
04:14PM 32.2040 -80.1740 30° Northeast 526 605 39,000  Level FlightAware
04:14PM 32.2760 -80.1250 30° Northeast 526 605 39,000  Level FlightAware
04:15PM 32.4680 -79.9790 33° Northeast 530 610 39,000  Level FlightAware
04:16PM 32.5800 -79.9000 31° Northeast 531 611 39,000  Level FlightAware
04:16PM 32.6760 -79.8320 31° Northeast 531 611 39,000  Level FlightAware
04:17PM 32.7590 -79.7730 31° Northeast 532 612 39,000  Level FlightAware
04:18PM 32.8550 -79.7050 31° Northeast 533 613 39,000  Level FlightAware
04:18PM 32.9380 -79.6450 31° Northeast 533 613 39,000  Level FlightAware
04:19PM 33.0190 -79.5870 31° Northeast 533 613 39,000  Level FlightAware
04:20PM 33.1190 -79.5160 31° Northeast 535 616 39,000  Level FlightAware
04:21PM 33.2000 -79.4580 31° Northeast 537 618 39,000  Level FlightAware
04:21PM 33.2980 -79.3870 31° Northeast 537 618 39,000  Level FlightAware
04:22PM 33.3820 -79.3260 31° Northeast 537 618 39,000  Level FlightAware
04:23PM 33.4660 -79.2660 31° Northeast 537 618 39,000  Level FlightAware
04:23PM 33.5600 -79.1980 31° Northeast 540 621 39,000  Level FlightAware
04:24PM 33.6480 -79.1340 31° Northeast 539 620 39,000  Level FlightAware
04:25PM 33.7430 -79.0650 31° Northeast 540 621 39,000 -660 Level FlightAware
04:25PM 33.8320 -79.0000 31° Northeast 538 619 38,100 -1,380 Descending FlightAware
04:26PM 33.9030 -78.9480 31° Northeast 541 623 37,300 -840 Descending FlightAware
04:27PM 33.9950 -78.8800 31° Northeast 543 625 37,000 -240 Descending FlightAware
04:28PM 34.0790 -78.8170 32° Northeast 541 623 37,000  Level FlightAware
04:28PM 34.1510 -78.7630 32° Northeast 541 623 37,000  Level FlightAware
04:29PM 34.2230 -78.7080 32° Northeast 541 623 37,000  Level FlightAware
04:30PM 34.2960 -78.6530 32° Northeast 541 623 37,000  Level FlightAware
04:30PM 34.3860 -78.5850 32° Northeast 541 623 37,000  Level FlightAware
04:31PM 34.4580 -78.5310 32° Northeast 541 623 37,000  Level FlightAware
04:32PM 34.5300 -78.4760 32° Northeast 541 623 37,000  Level FlightAware
04:32PM 34.6020 -78.4210 32° Northeast 541 623 37,000  Level FlightAware
04:33PM 34.6740 -78.3660 32° Northeast 541 623 37,000  Level FlightAware
04:34PM 34.7650 -78.2980 32° Northeast 541 623 37,000  Level FlightAware
04:35PM 34.8370 -78.2430 32° Northeast 541 623 37,000  Level FlightAware
04:35PM 34.9090 -78.1880 32° Northeast 541 623 37,000  Level FlightAware
04:36PM 34.9810 -78.1330 32° Northeast 541 623 37,000  Level FlightAware
04:37PM 35.0530 -78.0780 32° Northeast 541 623 37,000 -1,260 Level FlightAware
04:38PM 35.1578 -77.5178 32° Northeast 538 619 34,900 -1,800 Descending Washington Center
04:39PM 35.2539 -77.3775 50° Northeast 538 619 33,400 -1,020 Descending Washington Center
04:40PM 35.3494 -77.2575 46° Northeast 543 625 32,900 -1,020 Descending Washington Center
04:41PM 35.4822 -77.1683 29° Northeast 530 610 31,400 -960 Descending Washington Center
04:42PM 35.6169 -77.0817 28° Northeast 536 617 31,000 -240 Descending Washington Center
04:43PM 35.7472 -76.9919 29° Northeast 536 617 31,000  Level Washington Center
04:44PM 35.8839 -76.9072 27° Northeast 541 623 31,000 -60 Level Washington Center
04:45PM 36.0225 -76.8194 27° Northeast 541 623 30,900 -60 Descending Washington Center
04:46PM 36.1589 -76.7292 28° Northeast 541 623 30,900  Level Washington Center
04:47PM 36.2956 -76.6383 28° Northeast 541 623 31,000 -540 Climbing Washington Center
04:48PM 36.4464 -76.5422 27° Northeast 541 623 29,900 -660 Descending Washington Center
04:53PM 37.1880 -76.0530 27° Northeast 530 610 27,000 -480 Descending FlightAware
04:54PM 37.2910 -75.9830 28° Northeast 530 610 27,000  Level FlightAware
04:55PM 37.3940 -75.9140 28° Northeast 527 606 27,000  Level FlightAware
04:55PM 37.4750 -75.8590 28° Northeast 528 608 27,000  Level FlightAware
04:56PM 37.5478 -75.8104 28° Northeast 537 618 27,000  Level FlightAware ADS-B
04:56PM 37.6198 -75.7617 28° Northeast 537 618 27,000  Level FlightAware ADS-B
04:57PM 37.6865 -75.7164 28° Northeast 538 619 27,000  Level FlightAware ADS-B
04:57PM 37.7543 -75.6704 28° Northeast 539 620 27,000  Level FlightAware ADS-B
04:58PM 37.8276 -75.6204 28° Northeast 540 621 27,000  Level FlightAware ADS-B
04:58PM 37.8951 -75.5744 28° Northeast 540 621 27,000  Level FlightAware ADS-B
04:59PM 38.0435 -75.4727 28° Northeast 540 621 27,000 -480 Level FlightAware ADS-B
05:00PM 38.1104 -75.4297 27° Northeast 536 617 26,300 -1,620 Descending FlightAware ADS-B
05:01PM 38.1769 -75.3879 26° Northeast 523 602 25,400 -2,340 Descending FlightAware ADS-B
05:01PM 38.2453 -75.3457 26° Northeast 519 597 23,900 -2,760 Descending FlightAware ADS-B
05:02PM 38.3101 -75.3054 26° Northeast 506 582 22,600 -2,700 Descending FlightAware ADS-B
05:02PM 38.3846 -75.2583 26° Northeast 492 566 20,900 -3,000 Descending FlightAware ADS-B
05:03PM 38.4453 -75.2191 27° Northeast 471 542 19,300 -3,300 Descending FlightAware ADS-B
05:03PM 38.5273 -75.1660 27° Northeast 465 535 16,800 -3,000 Descending FlightAware ADS-B
05:04PM 38.6091 -75.1128 27° Northeast 465 535 14,900 -1,320 Descending FlightAware ADS-B
05:05PM 38.6930 -75.0580 27° Northeast 430 495 14,800  Descending FlightAware
05:05PM 38.7181 -75.0424 26° Northeast 433 498 14,900 120 Climbing FlightAware ADS-B
05:06PM 38.7716 -75.0087 26° Northeast 430 495 14,900  Level FlightAware ADS-B
05:06PM 38.8282 -74.9728 26° Northeast 432 497 14,900 -120 Level FlightAware ADS-B
05:07PM 38.8846 -74.9368 26° Northeast 430 495 14,800 -420 Descending FlightAware ADS-B
05:07PM 38.9128 -74.9179 28° Northeast 425 489 14,600 -960 Descending FlightAware ADS-B
05:07PM 38.9258 -74.9068 34° Northeast 421 484 14,400 -1,200 Descending FlightAware ADS-B
05:07PM 38.9364 -74.8959 39° Northeast 418 481 14,300 -1,200 Descending FlightAware ADS-B
05:07PM 38.9415 -74.8899 42° Northeast 418 481 14,200 -1,080 Descending FlightAware ADS-B
05:08PM 38.9822 -74.8353 46° Northeast 396 456 13,700 -780 Descending FlightAware ADS-B
05:08PM 39.0191 -74.7857 46° Northeast 370 426 13,400 -900 Descending FlightAware ADS-B
05:09PM 39.0531 -74.7393 47° Northeast 349 402 12,800 -1,380 Descending FlightAware ADS-B
05:09PM 39.0873 -74.6930 46° Northeast 341 392 12,000 -1,680 Descending FlightAware ADS-B
05:10PM 39.1197 -74.6499 46° Northeast 335 386 11,100 -1,860 Descending FlightAware ADS-B
05:10PM 39.1299 -74.6385 41° Northeast 333 383 10,800 -1,860 Descending FlightAware ADS-B
05:10PM 39.1474 -74.6251 31° Northeast 326 375 10,400 -1,500 Descending FlightAware ADS-B
05:11PM 39.1866 -74.6142 12° North 318 366 9,800 -840 Descending FlightAware ADS-B
05:11PM 39.2094 -74.6119 North 307 353 9,800 120 Level FlightAware ADS-B
05:11PM 39.2401 -74.6086 North 304 350 9,900 120 Climbing FlightAware ADS-B
05:12PM 39.2616 -74.6062 North 303 349 9,900  Level FlightAware ADS-B
05:12PM 39.2830 -74.6039 North 304 350 9,900 -240 Level FlightAware ADS-B
05:12PM 39.3043 -74.6016 North 304 350 9,800  Descending FlightAware ADS-B
05:12PM 39.3275 -74.5990 North 305 351 9,900 180 Climbing FlightAware ADS-B
05:13PM 39.3497 -74.5964 North 307 353 9,900  Level FlightAware ADS-B
05:13PM 39.3814 -74.5925 North 307 353 9,900  Level FlightAware ADS-B
05:13PM 39.4090 -74.5893 North 307 353 9,900  Level FlightAware ADS-B
05:14PM 39.4352 -74.5862 North 307 353 9,900 -240 Level FlightAware ADS-B
05:14PM 39.4553 -74.5840 North 306 352 9,800  Descending FlightAware ADS-B
05:14PM 39.4632 -74.5836 North 304 350 9,900 660 Climbing FlightAware ADS-B
05:14PM 39.4675 -74.5837 359° North 302 348 9,900  Level FlightAware ADS-B
05:14PM 39.4738 -74.5845 354° North 299 344 9,900  Level FlightAware ADS-B
05:14PM 39.4800 -74.5861 349° North 296 341 9,900  Level FlightAware ADS-B
05:14PM 39.4845 -74.5881 341° North 286 329 9,900  Level FlightAware ADS-B
05:14PM 39.4894 -74.5912 334° Northwest 280 322 9,900  Level FlightAware ADS-B
05:14PM 39.4928 -74.5944 324° Northwest 276 318 9,900  Level FlightAware ADS-B
05:14PM 39.4963 -74.5981 321° Northwest 272 313 9,900  Level FlightAware ADS-B
05:14PM 39.4990 -74.6015 316° Northwest 270 311 9,900 -720 Level FlightAware ADS-B
05:15PM 39.5036 -74.6092 308° West 264 304 9,800  Descending FlightAware ADS-B
05:15PM 39.5072 -74.6172 300° West 258 297 9,900 480 Climbing FlightAware ADS-B
05:15PM 39.5098 -74.6255 292° West 255 293 9,900  Level FlightAware ADS-B
05:15PM 39.5110 -74.6307 287° West 254 292 9,900  Level FlightAware ADS-B
05:15PM 39.5123 -74.6393 281° West 250 288 9,900  Level FlightAware ADS-B
05:15PM 39.5127 -74.6444 276° West 249 287 9,900 -360 Level FlightAware ADS-B
05:15PM 39.5142 -74.6668 275° West 248 285 9,800  Descending FlightAware ADS-B
05:15PM 39.5159 -74.6901 275° West 246 283 9,900 -240 Climbing FlightAware ADS-B
05:16PM 39.5180 -74.7142 276° West 247 284 9,700 -1,140 Descending FlightAware ADS-B
05:16PM 39.5185 -74.7222 275° West 245 282 9,500 -2,100 Descending FlightAware ADS-B
05:16PM 39.5202 -74.7443 276° West 250 288 9,000 -1,380 Descending FlightAware ADS-B
05:16PM 39.5222 -74.7674 276° West 251 289 8,800 -420 Descending FlightAware ADS-B
05:17PM 39.5241 -74.7900 276° West 247 284 8,800  Level FlightAware ADS-B
05:17PM 39.5258 -74.8122 276° West 243 280 8,800 180 Level FlightAware ADS-B
05:17PM 39.5277 -74.8353 276° West 243 280 8,900  Climbing FlightAware ADS-B
05:17PM 39.5293 -74.8545 276° West 244 281 8,800  Descending FlightAware ADS-B
05:18PM 39.5309 -74.8784 275° West 241 277 8,900  Climbing FlightAware ADS-B
05:18PM 39.5326 -74.9001 276° West 243 280 8,800 -240 Descending FlightAware ADS-B
05:18PM 39.5341 -74.9199 276° West 244 281 8,800  Level FlightAware ADS-B
05:18PM 39.5352 -74.9352 275° West 243 280 8,800  Level FlightAware ADS-B
05:18PM 39.5363 -74.9431 280° West 242 278 8,800  Level FlightAware ADS-B
05:18PM 39.5375 -74.9487 286° West 242 278 8,800  Level FlightAware ADS-B
05:19PM 39.5396 -74.9561 290° West 242 278 8,800  Level FlightAware ADS-B
05:19PM 39.5418 -74.9617 297° West 242 278 8,800 720 Level FlightAware ADS-B
05:19PM 39.5443 -74.9672 301° West 243 280 8,900 540 Climbing FlightAware ADS-B
05:19PM 39.5491 -74.9752 308° West 244 281 8,900 -420 Level FlightAware ADS-B
05:19PM 39.5553 -74.9832 315° West 248 285 8,800 -240 Descending FlightAware ADS-B
05:19PM 39.5792 -74.9993 333° Northwest 258 297 8,800  Level FlightAware ADS-B
05:19PM 39.5848 -75.0009 348° North 260 299 8,800  Level FlightAware ADS-B
05:19PM 39.5910 -75.0020 352° North 263 303 8,800 660 Level FlightAware ADS-B
05:20PM 39.5955 -75.0023 357° North 265 305 8,900 840 Climbing FlightAware ADS-B
05:20PM 39.5999 -75.0023 360° North 268 308 8,900 -720 Level FlightAware ADS-B
05:20PM 39.6059 -75.0016 North 272 313 8,800 -780 Descending FlightAware ADS-B
05:20PM 39.6100 -75.0008 North 275 316 8,800  Level FlightAware ADS-B
05:20PM 39.6156 -74.9992 12° North 277 319 8,800  Level FlightAware ADS-B
05:20PM 39.6356 -74.9922 15° North 280 322 8,800  Level FlightAware ADS-B
05:20PM 39.6552 -74.9852 15° North 279 321 8,800 -600 Level FlightAware ADS-B
05:21PM 39.6764 -74.9776 15° North 278 320 8,500 -960 Descending FlightAware ADS-B
05:21PM 39.6947 -74.9708 16° North 271 312 8,300 -1,020 Descending FlightAware ADS-B
05:21PM 39.7126 -74.9643 16° North 266 306 8,000 -1,200 Descending FlightAware ADS-B
05:21PM 39.7256 -74.9597 15° North 265 305 7,800 -1,320 Descending FlightAware ADS-B
05:21PM 39.7295 -74.9586 12° North 264 304 7,700 -1,740 Descending FlightAware ADS-B
05:21PM 39.7336 -74.9577 10° North 263 303 7,600 -1,800 Descending FlightAware ADS-B
05:21PM 39.7409 -74.9570 North 259 298 7,400 -2,040 Descending FlightAware ADS-B
05:22PM 39.7475 -74.9575 357° North 257 296 7,200 -1,680 Descending FlightAware ADS-B
05:22PM 39.7533 -74.9588 350° North 252 290 7,100 -1,380 Descending FlightAware ADS-B
05:22PM 39.7584 -74.9607 344° North 249 287 7,000 -2,040 Descending FlightAware ADS-B
05:22PM 39.7639 -74.9634 339° North 247 284 6,800 -2,040 Descending FlightAware ADS-B
05:22PM 39.7673 -74.9658 332° Northwest 245 282 6,700 -1,920 Descending FlightAware ADS-B
05:22PM 39.7821 -74.9768 330° Northwest 243 280 6,200 -1,560 Descending FlightAware ADS-B
05:22PM 39.7971 -74.9884 329° Northwest 234 269 5,900 -1,380 Descending FlightAware ADS-B
05:23PM 39.8150 -75.0020 330° Northwest 229 264 5,400 -1,980 Descending FlightAware ADS-B
05:23PM 39.8280 -75.0117 330° Northwest 220 253 4,800 -2,400 Descending FlightAware ADS-B
05:23PM 39.8412 -75.0214 331° Northwest 217 250 4,200 -2,520 Descending FlightAware ADS-B
05:23PM 39.8549 -75.0315 330° Northwest 217 250 3,500 -2,220 Descending FlightAware ADS-B
05:24PM 39.8779 -75.0482 331° Northwest 223 257 2,700 -1,680 Descending FlightAware ADS-B
05:24PM 39.8912 -75.0611 323° Northwest 197 227 2,300 -900 Descending FlightAware ADS-B
05:24PM 39.8958 -75.0700 304° West 181 208 2,300 -360 Level FlightAware ADS-B
05:25PM 39.8976 -75.0763 290° West 171 197 2,200 -1,200 Descending FlightAware ADS-B
05:25PM 39.8984 -75.0797 287° West 168 193 2,100 -1,020 Descending FlightAware ADS-B
05:25PM 39.9001 -75.0879 285° West 157 181 2,000 -720 Descending FlightAware ADS-B
05:25PM 39.9002 -75.0950 271° West 157 181 1,900 -1,140 Descending FlightAware ADS-B
05:25PM 39.8998 -75.0977 259° West 158 182 1,800 -1,500 Descending FlightAware ADS-B
05:25PM 39.8980 -75.1059 254° West 154 177 1,600 -1,020 Descending FlightAware ADS-B
05:25PM 39.8955 -75.1187 256° West 136 157 1,400 -660 Descending FlightAware ADS-B
05:25PM 39.8948 -75.1221 255° West 133 153 1,400 -600 Level FlightAware ADS-B
05:25PM 39.8939 -75.1276 258° West 132 152 1,300 -300 Descending FlightAware ADS-B
05:26PM 39.8922 -75.1369 257° West 131 151 1,300 -540 Level FlightAware ADS-B
05:26PM 39.8906 -75.1455 256° West 136 157 1,100 -900 Descending FlightAware ADS-B
05:26PM 39.8882 -75.1583 256° West 137 158 900 -780 Descending FlightAware ADS-B
05:26PM 39.8856 -75.1707 255° West 137 158 700 -720 Descending FlightAware ADS-B
05:27PM 39.8840 -75.1786 255° West 139 160 600 -720 Descending FlightAware ADS-B
05:27PM 39.8814 -75.1922 256° West 141 162 400 -720 Descending FlightAware ADS-B
05:27PM 39.8783 -75.2072 255° West 131 151 200 -660 Descending FlightAware ADS-B